createdAt,value
2023-05-05T00:01:16.833Z,14.00
2023-05-05T00:04:22.838Z,18.00
2023-05-05T00:07:25.385Z,15.00
2023-05-05T00:10:28.272Z,15.00
2023-05-05T00:13:30.962Z,14.00
2023-05-05T00:16:33.709Z,15.75
2023-05-05T00:19:36.449Z,16.75
2023-05-05T00:22:39.185Z,14.25
2023-05-05T00:25:41.715Z,14.75
2023-05-05T00:28:44.654Z,14.50
2023-05-05T00:31:47.149Z,15.75
2023-05-05T00:34:49.866Z,16.25
2023-05-05T00:37:52.235Z,15.00
2023-05-05T00:40:55.105Z,14.00
2023-05-05T00:43:57.560Z,14.67
2023-05-05T00:47:00.387Z,14.00
2023-05-05T00:50:21.602Z,17.00
2023-05-05T00:53:26.738Z,13.33
2023-05-05T00:56:29.214Z,15.33
2023-05-05T00:59:33.978Z,15.33
2023-05-05T01:02:36.778Z,13.67
2023-05-05T01:06:11.150Z,15.67
2023-05-05T01:09:42.666Z,14.00
2023-05-05T01:13:19.457Z,13.67
2023-05-05T01:16:26.006Z,16.33
2023-05-05T01:19:49.727Z,16.00
2023-05-05T01:22:58.675Z,13.67
2023-05-05T01:26:39.396Z,13.00
2023-05-05T01:30:11.506Z,14.33
2023-05-05T01:33:16.286Z,16.67
2023-05-05T01:36:24.603Z,14.33
2023-05-05T01:39:31.965Z,14.33
2023-05-05T01:42:35.656Z,17.33
2023-05-05T01:45:39.599Z,16.67
2023-05-05T01:48:43.577Z,15.33
2023-05-05T01:51:47.560Z,16.00
2023-05-05T01:54:51.055Z,17.00
2023-05-05T01:57:55.339Z,16.00
2023-05-05T02:00:58.946Z,16.00
2023-05-05T02:04:03.796Z,15.33
2023-05-05T02:07:06.994Z,19.00
2023-05-05T02:10:10.894Z,16.00
2023-05-05T02:13:13.527Z,20.00
2023-05-05T02:16:17.292Z,14.00
2023-05-05T02:19:21.868Z,14.33
2023-05-05T02:22:25.410Z,17.33
2023-05-05T02:25:35.185Z,19.00
2023-05-05T02:29:07.687Z,19.33
2023-05-05T02:32:15.037Z,19.00
2023-05-05T02:35:21.486Z,16.33
2023-05-05T02:38:27.821Z,19.67
2023-05-05T02:41:36.681Z,15.33
2023-05-05T02:44:45.918Z,17.67
2023-05-05T02:47:49.772Z,17.00
2023-05-05T02:50:52.579Z,19.33
2023-05-05T02:54:06.896Z,17.00
2023-05-05T02:57:11.690Z,17.67
2023-05-05T03:00:40.505Z,19.00
2023-05-05T03:04:07.817Z,20.00
2023-05-05T03:07:26.739Z,19.33
2023-05-05T03:10:56.326Z,20.00
2023-05-05T03:14:09.268Z,22.33
2023-05-05T03:17:13.937Z,19.33
2023-05-05T03:20:17.307Z,21.00
2023-05-05T03:23:23.428Z,24.33
2023-05-05T03:26:31.711Z,22.33
2023-05-05T03:29:34.244Z,21.67
2023-05-05T03:32:38.642Z,21.67
2023-05-05T03:35:41.071Z,23.33
2023-05-05T03:38:46.817Z,24.33
2023-05-05T03:41:49.572Z,26.33
2023-05-05T03:44:54.641Z,25.00
2023-05-05T03:47:58.566Z,20.00
2023-05-05T03:51:01.333Z,24.33
2023-05-05T03:54:06.696Z,27.00
2023-05-05T03:57:09.725Z,25.33
2023-05-05T04:00:12.721Z,25.33
2023-05-05T04:03:18.529Z,23.67
2023-05-05T04:06:23.967Z,25.33
2023-05-05T04:09:26.843Z,27.00
2023-05-05T04:12:30.290Z,24.67
2023-05-05T04:15:33.474Z,24.33
2023-05-05T04:18:37.490Z,22.00
2023-05-05T04:21:40.853Z,21.00
2023-05-05T04:24:44.590Z,23.33
2023-05-05T04:27:48.576Z,20.67
2023-05-05T04:30:51.758Z,21.00
2023-05-05T04:33:54.259Z,17.00
2023-05-05T04:36:57.411Z,18.00
2023-05-05T04:40:00.073Z,18.00
2023-05-05T04:43:04.123Z,17.00
2023-05-05T04:46:08.476Z,20.33
2023-05-05T04:49:13.888Z,19.00
2023-05-05T04:52:16.359Z,18.00
2023-05-05T04:55:19.215Z,19.33
2023-05-05T04:58:21.761Z,18.00
2023-05-05T05:01:24.601Z,15.50
2023-05-05T05:04:27.612Z,15.00
2023-05-05T05:07:30.602Z,12.25
2023-05-05T05:10:33.068Z,12.75
2023-05-05T05:13:35.809Z,16.00
2023-05-05T05:16:38.327Z,11.75
2023-05-05T05:19:41.766Z,12.00
2023-05-05T05:22:44.249Z,12.00
2023-05-05T05:25:51.493Z,9.50
2023-05-05T05:28:55.943Z,10.00
2023-05-05T05:31:59.014Z,10.50
2023-05-05T05:35:01.592Z,8.00
2023-05-05T05:38:04.538Z,10.75
2023-05-05T05:41:10.247Z,8.50
2023-05-05T05:44:14.905Z,9.00
2023-05-05T05:47:17.349Z,9.00
2023-05-05T05:50:23.508Z,12.00
2023-05-05T05:53:26.371Z,10.75
2023-05-05T05:56:30.298Z,9.00
2023-05-05T05:59:33.272Z,10.00
2023-05-05T06:02:36.405Z,9.00
2023-05-05T06:05:39.092Z,9.00
2023-05-05T06:08:42.501Z,10.00
2023-05-05T06:11:44.919Z,10.00
2023-05-05T06:14:47.841Z,11.00
2023-05-05T06:17:50.287Z,9.50
2023-05-05T06:20:53.183Z,9.00
2023-05-05T06:23:58.698Z,10.50
2023-05-05T06:27:02.733Z,9.00
2023-05-05T06:30:07.408Z,10.75
2023-05-05T06:33:10.371Z,5.00
2023-05-05T06:36:12.816Z,10.00
2023-05-05T06:39:16.132Z,8.75
2023-05-05T06:42:18.688Z,8.25
2023-05-05T06:45:22.495Z,8.50
2023-05-05T06:48:24.937Z,9.00
2023-05-05T06:51:27.912Z,8.25
2023-05-05T06:54:30.323Z,9.00
2023-05-05T06:57:33.132Z,8.00
2023-05-05T07:00:35.501Z,9.00
2023-05-05T07:03:38.464Z,9.00
2023-05-05T07:06:41.040Z,8.00
2023-05-05T07:09:45.263Z,7.00
2023-05-05T07:12:49.369Z,9.00
2023-05-05T07:15:52.133Z,8.00
2023-05-05T07:18:54.615Z,8.00
2023-05-05T07:21:57.556Z,6.00
2023-05-05T07:25:00.008Z,6.00
2023-05-05T07:28:03.118Z,6.00
2023-05-05T07:31:05.703Z,5.75
2023-05-05T07:34:09.328Z,6.75
2023-05-05T07:37:11.800Z,5.00
2023-05-05T07:40:14.634Z,6.00
2023-05-05T07:43:16.976Z,5.50
2023-05-05T07:46:20.157Z,7.00
2023-05-05T07:49:22.695Z,6.00
2023-05-05T07:52:43.310Z,5.25
2023-05-05T07:55:47.402Z,6.25
2023-05-05T07:58:50.246Z,4.25
2023-05-05T08:01:54.334Z,6.00
2023-05-05T08:04:57.749Z,5.00
2023-05-05T08:08:00.208Z,6.00
2023-05-05T08:11:03.545Z,5.75
2023-05-05T08:14:05.964Z,6.50
2023-05-05T08:17:09.083Z,5.25
2023-05-05T08:20:12.160Z,5.00
2023-05-05T08:23:14.856Z,2.00
2023-05-05T08:26:17.478Z,5.25
2023-05-05T08:29:20.222Z,6.00
2023-05-05T08:32:22.677Z,5.00
2023-05-05T08:35:25.625Z,4.00
2023-05-05T08:38:28.205Z,6.00
2023-05-05T08:41:31.178Z,5.00
2023-05-05T08:44:34.065Z,6.00
2023-05-05T08:47:37.748Z,5.50
2023-05-05T08:50:40.816Z,3.50
2023-05-05T08:53:56.078Z,3.00
2023-05-05T08:57:02.164Z,5.00
2023-05-05T09:00:05.666Z,3.50
2023-05-05T09:03:08.256Z,4.00
2023-05-05T09:06:11.581Z,5.00
2023-05-05T09:09:14.559Z,5.00
2023-05-05T09:12:18.820Z,4.00
2023-05-05T09:15:21.262Z,4.00
2023-05-05T09:18:24.075Z,5.00
2023-05-05T09:21:26.720Z,5.00
2023-05-05T09:24:29.536Z,4.00
2023-05-05T09:27:36.405Z,5.00
2023-05-05T09:30:40.709Z,4.00
2023-05-05T09:33:43.884Z,5.00
2023-05-05T09:36:48.201Z,4.75
2023-05-05T09:39:55.160Z,4.00
2023-05-05T09:43:03.134Z,4.00
2023-05-05T09:46:07.836Z,5.00
2023-05-05T09:49:18.697Z,4.50
2023-05-05T09:52:21.263Z,4.00
2023-05-05T09:55:24.903Z,4.00
2023-05-05T09:58:29.035Z,5.00
2023-05-05T10:01:31.803Z,4.00
2023-05-05T10:07:51.007Z,2.00
2023-05-05T10:11:07.415Z,4.75
2023-05-05T10:14:14.331Z,4.00
2023-05-05T10:17:17.140Z,4.00
2023-05-05T10:20:21.418Z,3.00
2023-05-05T10:23:25.090Z,4.00
2023-05-05T10:26:28.170Z,5.00
2023-05-05T10:29:42.662Z,3.50
2023-05-05T10:33:03.441Z,3.50
2023-05-05T10:36:12.926Z,4.75
2023-05-05T10:39:17.305Z,4.00
2023-05-05T10:42:20.772Z,5.00
2023-05-05T10:45:23.649Z,5.00
2023-05-05T10:48:43.151Z,4.00
2023-05-05T10:51:51.807Z,5.00
2023-05-05T10:55:15.851Z,5.25
2023-05-05T10:58:47.107Z,4.00
2023-05-05T11:01:58.512Z,4.00
2023-05-05T11:05:15.262Z,4.00
2023-05-05T11:08:27.892Z,4.00
2023-05-05T11:12:04.228Z,0.00
2023-05-05T11:15:31.636Z,4.00
2023-05-05T11:18:36.568Z,5.00
2023-05-05T11:22:04.713Z,4.00
2023-05-05T11:25:41.034Z,5.00
2023-05-05T11:29:00.338Z,5.00
2023-05-05T11:32:13.326Z,4.00
2023-05-05T11:35:16.481Z,5.00
2023-05-05T11:38:22.292Z,4.00
2023-05-05T11:41:35.426Z,6.00
2023-05-05T11:44:38.032Z,4.25
2023-05-05T11:47:40.887Z,5.00
2023-05-05T11:50:43.307Z,5.25
2023-05-05T11:53:47.708Z,4.50
2023-05-05T11:56:51.434Z,4.00
2023-05-05T11:59:57.163Z,7.00
2023-05-05T12:02:59.940Z,4.00
2023-05-05T12:06:04.244Z,6.00
2023-05-05T12:09:21.123Z,6.25
2023-05-05T12:12:42.487Z,4.33
2023-05-05T12:15:45.113Z,5.00
2023-05-05T12:18:48.101Z,4.33
2023-05-05T12:21:50.636Z,5.00
2023-05-05T12:24:57.893Z,5.50
2023-05-05T12:28:00.350Z,4.50
2023-05-05T12:31:03.930Z,4.50
2023-05-05T12:34:09.895Z,4.75
2023-05-05T12:37:12.740Z,6.00
2023-05-05T12:40:44.237Z,6.50
2023-05-05T12:43:47.930Z,5.25
2023-05-05T12:46:53.139Z,5.00
2023-05-05T12:49:56.265Z,4.50
2023-05-05T12:52:58.699Z,4.75
2023-05-05T12:56:01.389Z,5.50
2023-05-05T12:59:29.255Z,5.00
2023-05-05T13:02:35.522Z,4.50
2023-05-05T13:05:38.003Z,4.00
2023-05-05T13:08:44.066Z,4.00
2023-05-05T13:11:46.537Z,4.00
2023-05-05T13:14:49.367Z,4.00
2023-05-05T13:17:58.451Z,4.00
2023-05-05T13:21:01.212Z,4.00
2023-05-05T13:27:09.860Z,5.00
2023-05-05T13:30:12.697Z,4.00
2023-05-05T13:33:15.417Z,4.25
2023-05-05T13:36:17.966Z,5.00
2023-05-05T13:39:21.082Z,4.00
2023-05-05T13:42:25.031Z,4.25
2023-05-05T13:45:27.822Z,4.00
2023-05-05T13:48:30.256Z,3.00
2023-05-05T13:51:34.973Z,4.00
2023-05-05T13:54:37.810Z,4.00
2023-05-05T13:57:40.500Z,5.00
2023-05-05T14:00:43.215Z,5.00
2023-05-05T14:03:46.145Z,4.00
2023-05-05T14:06:48.653Z,3.50
2023-05-05T16:02:56.246Z,2.50
2023-05-05T16:05:58.703Z,3.00
2023-05-05T16:09:01.474Z,3.00
2023-05-05T16:12:04.361Z,3.00
2023-05-05T16:15:07.844Z,3.00
2023-05-05T16:18:10.814Z,4.00
2023-05-05T16:21:13.708Z,3.00
2023-05-05T16:24:17.095Z,3.00
2023-05-05T16:27:19.928Z,3.75
2023-05-05T16:30:22.996Z,4.00
2023-05-05T16:33:25.866Z,2.75
2023-05-05T16:36:28.605Z,3.00
2023-05-05T16:39:33.207Z,3.00
2023-05-05T16:42:35.563Z,3.00
2023-05-05T16:45:38.389Z,3.00
2023-05-05T16:48:41.281Z,4.00
2023-05-05T16:51:44.478Z,4.00
2023-05-05T16:54:48.408Z,3.00
2023-05-05T16:57:51.178Z,4.00
2023-05-05T17:00:54.009Z,4.00
2023-05-05T17:03:58.048Z,3.00
2023-05-05T17:07:00.534Z,4.00
2023-05-05T17:10:03.281Z,4.00
2023-05-05T17:13:05.748Z,4.00
2023-05-05T17:16:08.598Z,4.00
2023-05-05T17:19:10.974Z,2.75
2023-05-05T17:22:13.838Z,4.75
2023-05-05T17:25:16.267Z,4.25
2023-05-05T17:28:20.361Z,0.00
2023-05-05T17:31:22.813Z,5.00
2023-05-05T17:34:25.765Z,5.00
2023-05-05T17:37:28.673Z,5.00
2023-05-05T17:40:31.324Z,3.00
2023-05-05T17:43:34.114Z,4.25
2023-05-05T17:46:37.633Z,5.00
2023-05-05T17:49:40.452Z,4.00
2023-05-05T17:52:44.128Z,3.75
2023-05-05T17:55:47.176Z,4.75
2023-05-05T17:58:49.632Z,4.00
2023-05-05T18:01:52.281Z,4.25
2023-05-05T18:04:55.349Z,3.50
2023-05-05T18:07:58.430Z,4.50
2023-05-05T18:11:02.112Z,5.00
2023-05-05T18:14:05.069Z,6.75
2023-05-05T18:17:07.906Z,4.00
2023-05-05T18:20:11.265Z,7.00
2023-05-05T18:23:13.990Z,6.00
2023-05-05T18:26:17.631Z,5.00
2023-05-05T18:29:22.102Z,7.00
2023-05-05T18:32:24.943Z,7.00
2023-05-05T18:35:28.228Z,5.25
2023-05-05T18:38:31.833Z,7.25
2023-05-05T18:41:35.902Z,7.00
2023-05-05T18:44:40.415Z,6.75
2023-05-05T18:47:43.369Z,7.00
2023-05-05T18:50:47.082Z,5.25
2023-05-05T18:53:50.206Z,6.00
2023-05-05T18:56:53.081Z,7.00
2023-05-05T18:59:55.836Z,7.00
2023-05-05T19:02:58.777Z,4.00
2023-05-05T19:06:06.191Z,6.00
2023-05-05T19:09:09.298Z,7.75
2023-05-05T19:12:11.854Z,7.00
2023-05-05T19:15:14.893Z,7.00
2023-05-05T19:18:17.534Z,8.00
2023-05-05T19:21:20.401Z,9.00
2023-05-05T19:24:22.892Z,8.00
2023-05-05T19:27:27.445Z,1.00
2023-05-05T19:30:30.786Z,9.00
2023-05-05T19:33:34.377Z,9.00
2023-05-05T19:36:36.827Z,8.50
2023-05-05T19:39:40.157Z,8.00
2023-05-05T19:42:44.066Z,8.00
2023-05-05T19:45:48.106Z,8.00
2023-05-05T19:48:51.198Z,11.00
2023-05-05T19:51:55.310Z,6.75
2023-05-05T19:54:59.072Z,10.00
2023-05-05T19:58:01.801Z,8.75
2023-05-05T20:01:04.244Z,9.00
2023-05-05T20:04:07.720Z,10.25
2023-05-05T20:07:10.332Z,9.50
2023-05-05T20:10:16.927Z,8.00
2023-05-05T20:13:20.127Z,9.75
2023-05-05T20:16:23.016Z,12.00
2023-05-05T20:19:25.473Z,12.00
2023-05-05T20:22:28.278Z,10.75
2023-05-05T20:25:30.924Z,12.00
2023-05-05T20:28:34.455Z,11.25
2023-05-05T20:31:39.159Z,9.75
2023-05-05T20:34:41.933Z,10.25
2023-05-05T20:38:11.117Z,11.50
2023-05-05T20:41:33.453Z,10.50
2023-05-05T20:45:58.572Z,11.00
2023-05-05T20:54:00.002Z,12.00
2023-05-05T21:02:00.947Z,11.75
2023-05-05T21:10:25.576Z,10.00
2023-05-05T21:13:29.260Z,10.00
2023-05-05T21:17:16.762Z,10.25
2023-05-05T21:20:43.514Z,9.00
2023-05-05T21:23:48.145Z,10.00
2023-05-05T21:27:03.166Z,11.50
2023-05-05T21:30:35.753Z,10.50
2023-05-05T21:34:02.648Z,11.00
2023-05-05T21:41:13.090Z,8.00
2023-05-05T21:45:00.232Z,11.00
2023-05-05T21:48:06.791Z,11.50
2023-05-05T21:51:34.880Z,9.00
2023-05-05T21:54:37.916Z,8.00
2023-05-05T21:57:59.018Z,10.25
2023-05-05T22:01:02.493Z,10.00
2023-05-05T22:04:05.770Z,8.50
2023-05-05T22:10:49.301Z,11.75
2023-05-05T22:13:52.244Z,11.00
2023-05-05T22:16:56.923Z,14.00
2023-05-05T22:23:41.709Z,15.00
2023-05-05T22:26:44.185Z,11.25
2023-05-05T22:29:47.157Z,13.25
2023-05-05T22:32:49.799Z,14.50
2023-05-05T22:35:53.652Z,14.50
2023-05-05T22:38:56.460Z,14.25
2023-05-05T22:41:59.102Z,12.25
2023-05-05T22:45:01.569Z,12.00
2023-05-05T22:48:04.734Z,13.50
2023-05-05T22:51:07.780Z,13.50
2023-05-05T22:54:10.896Z,11.25
2023-05-05T22:57:13.368Z,8.25
2023-05-05T23:00:16.171Z,9.75
2023-05-05T23:03:18.699Z,10.25
2023-05-05T23:06:21.407Z,8.25
2023-05-05T23:09:23.995Z,8.00
2023-05-05T23:12:26.703Z,7.00
2023-05-05T23:15:29.113Z,7.50
2023-05-05T23:18:32.072Z,7.00
2023-05-05T23:21:52.033Z,9.00
2023-05-05T23:24:55.380Z,8.25
2023-05-05T23:27:59.245Z,5.25
2023-05-05T23:31:02.190Z,9.00
2023-05-05T23:34:04.689Z,5.75
2023-05-05T23:37:07.284Z,6.75
2023-05-05T23:40:09.969Z,7.75
2023-05-05T23:43:13.080Z,7.00
2023-05-05T23:46:15.840Z,8.50
2023-05-05T23:49:18.765Z,6.00
2023-05-05T23:52:21.204Z,6.00
2023-05-05T23:55:24.087Z,6.00
2023-05-05T23:58:26.885Z,8.00
